Center, Colorado
Current Conditions -  °F | °C
As of 12:50 AM on Wednesday 26 Nov 2014 (Local Time) from KRCV Reporting Station
Clear Clear  
Wind Chill:   Ceiling: Unl
Heat Index: 18°   Visibility: 10mi
Dew Point:   Wind: 7mph
Humidity: 64%   Direction: 270°W
Pressure: 30.25"   Gusts: NA
Location:  37.75°N, 106.11°W
Report Text: KRCV 260750Z AUTO 27006KT 10SM CLR M08/M13 A3025 RMK AO2 T10761134
Loading
Personal Weather Stations






























Interactive Weather Map New forecast layout! Learn more

10-Day Weather Forecast

Advertisements
Track Severe Weather on mobile